METAR Data
IDs: Format: Raw Decoded Include TAF

Data at: 0759 UTC 07 Apr 2020

METAR for:KIAD (Washington/Dulles In, VA, US)
Text:KIAD 070752Z 19006KT 10SM BKN100 BKN120 12/07 A2996 RMK AO2 SLP144 T01170067
Temperature: 11.7°C ( 53°F)
Dewpoint: 6.7°C ( 44°F) [RH = 71%]
Pressure (altimeter):29.96 inches Hg (1014.6 mb) [Sea level pressure: 1014.4 mb]
Winds:from the S (190 degrees) at 7 MPH (6 knots; 3.1 m/s)
Visibility:10 or more sm (16+ km)
Ceiling:10000 feet AGL
Clouds: broken clouds at 10000 feet AGL, broken clouds at 12000 feet AGL